createdAt,value
2022-12-06T00:00:42.895Z,60.40
2022-12-06T00:01:42.957Z,63.11
2022-12-06T00:02:42.896Z,62.35
2022-12-06T00:03:42.945Z,63.42
2022-12-06T00:04:42.895Z,58.44
2022-12-06T00:05:46.261Z,60.77
2022-12-06T00:06:42.863Z,62.19
2022-12-06T00:07:42.923Z,57.85
2022-12-06T00:08:42.853Z,58.14
2022-12-06T00:09:42.870Z,61.72
2022-12-06T00:10:42.841Z,63.52
2022-12-06T00:11:42.837Z,62.68
2022-12-06T00:12:42.835Z,62.29
2022-12-06T00:13:42.825Z,64.17
2022-12-06T00:14:42.838Z,58.55
2022-12-06T00:15:42.801Z,61.62
2022-12-06T00:16:42.842Z,61.46
2022-12-06T00:17:43.227Z,63.81
2022-12-06T00:18:42.791Z,63.67
2022-12-06T00:19:42.788Z,62.91
2022-12-06T00:20:42.789Z,61.22
2022-12-06T00:21:42.777Z,62.98
2022-12-06T00:22:42.757Z,62.42
2022-12-06T00:23:42.752Z,63.55
2022-12-06T00:24:42.769Z,61.73
2022-12-06T00:25:42.752Z,66.74
2022-12-06T00:26:42.735Z,64.13
2022-12-06T00:27:42.729Z,61.21
2022-12-06T00:28:42.713Z,61.77
2022-12-06T00:29:42.737Z,60.87
2022-12-06T00:30:42.703Z,63.72
2022-12-06T00:31:42.766Z,61.70
2022-12-06T00:32:42.692Z,61.33
2022-12-06T00:33:42.705Z,60.83
2022-12-06T00:34:42.675Z,61.76
2022-12-06T00:35:42.707Z,64.13
2022-12-06T00:36:42.668Z,65.28
2022-12-06T00:37:42.663Z,61.16
2022-12-06T00:38:42.707Z,61.92
2022-12-06T00:39:42.653Z,63.38
2022-12-06T00:40:42.651Z,64.79
2022-12-06T00:41:42.653Z,62.30
2022-12-06T00:42:42.639Z,60.67
2022-12-06T00:43:42.622Z,58.71
2022-12-06T00:44:42.629Z,59.00
2022-12-06T00:45:42.625Z,59.38
2022-12-06T00:46:42.607Z,62.13
2022-12-06T00:47:42.618Z,64.99
2022-12-06T00:48:42.588Z,61.60
2022-12-06T00:49:42.587Z,62.55
2022-12-06T00:50:42.587Z,61.41
2022-12-06T00:51:42.575Z,62.55
2022-12-06T00:52:42.620Z,60.54
2022-12-06T00:53:42.565Z,63.72
2022-12-06T00:54:42.558Z,63.19
2022-12-06T00:55:42.544Z,60.03
2022-12-06T00:56:42.549Z,58.24
2022-12-06T00:57:42.535Z,59.14
2022-12-06T00:58:42.534Z,62.18
2022-12-06T00:59:42.527Z,60.21
2022-12-06T01:00:42.514Z,60.20
2022-12-06T01:01:42.566Z,61.53
2022-12-06T01:02:42.525Z,59.45
2022-12-06T01:03:42.543Z,57.71
2022-12-06T01:04:42.504Z,59.86
2022-12-06T01:05:42.481Z,60.95
2022-12-06T01:06:42.491Z,59.11
2022-12-06T01:07:42.517Z,61.76
2022-12-06T01:08:42.460Z,63.93
2022-12-06T01:09:42.476Z,63.39
2022-12-06T01:10:42.442Z,59.66
2022-12-06T01:11:42.438Z,59.95
2022-12-06T01:12:42.423Z,62.51
2022-12-06T01:13:42.434Z,60.63
2022-12-06T01:14:42.424Z,58.17
2022-12-06T01:15:42.465Z,61.65
2022-12-06T01:16:42.498Z,62.79
2022-12-06T01:17:42.395Z,61.38
2022-12-06T01:18:42.388Z,62.51
2022-12-06T01:19:42.383Z,60.93
2022-12-06T01:20:42.380Z,63.24
2022-12-06T01:21:42.412Z,63.28
2022-12-06T01:22:42.373Z,62.89
2022-12-06T01:23:42.373Z,61.78
2022-12-06T01:24:42.357Z,63.48
2022-12-06T01:25:42.355Z,62.61
2022-12-06T01:26:42.344Z,60.31
2022-12-06T01:27:42.360Z,58.39
2022-12-06T01:28:42.349Z,59.57
2022-12-06T01:29:42.330Z,61.37
2022-12-06T01:30:42.398Z,59.38
2022-12-06T01:31:42.314Z,61.22
2022-12-06T01:32:42.314Z,61.67
2022-12-06T01:33:42.335Z,60.89
2022-12-06T01:34:42.290Z,63.48
2022-12-06T01:35:42.297Z,60.65
2022-12-06T01:36:42.292Z,61.97
2022-12-06T01:37:42.294Z,61.22
2022-12-06T01:38:42.266Z,62.63
2022-12-06T01:39:42.270Z,61.75
2022-12-06T01:40:42.259Z,61.39
2022-12-06T01:41:42.263Z,61.00
2022-12-06T01:42:42.240Z,61.89
2022-12-06T01:43:42.232Z,61.92
2022-12-06T01:44:42.234Z,62.58
2022-12-06T01:45:42.270Z,62.27
2022-12-06T01:46:42.255Z,66.17
2022-12-06T01:47:42.221Z,62.35
2022-12-06T01:48:42.195Z,63.84
2022-12-06T01:49:42.206Z,59.21
2022-12-06T01:50:42.196Z,59.75
2022-12-06T01:51:42.194Z,61.41
2022-12-06T01:52:42.165Z,60.38
2022-12-06T01:53:42.164Z,61.16
2022-12-06T01:54:42.160Z,61.26
2022-12-06T01:55:42.170Z,56.32
2022-12-06T01:56:42.146Z,61.49
2022-12-06T01:57:42.148Z,61.78
2022-12-06T01:58:42.130Z,57.92
2022-12-06T01:59:42.127Z,61.39
2022-12-06T02:00:42.129Z,61.04
2022-12-06T02:01:42.218Z,61.63
2022-12-06T02:02:42.189Z,62.54
2022-12-06T02:03:42.107Z,59.96
2022-12-06T02:04:42.112Z,59.20
2022-12-06T02:05:42.083Z,60.86
2022-12-06T02:06:42.082Z,62.56
2022-12-06T02:07:42.141Z,60.88
2022-12-06T02:08:42.058Z,63.54
2022-12-06T02:09:42.065Z,64.41
2022-12-06T02:10:42.076Z,62.43
2022-12-06T02:11:42.044Z,61.91
2022-12-06T02:12:42.062Z,61.30
2022-12-06T02:13:42.040Z,61.47
2022-12-06T02:14:42.059Z,62.28
2022-12-06T02:15:42.022Z,61.54
2022-12-06T02:16:42.069Z,62.46
2022-12-06T02:17:42.019Z,61.73
2022-12-06T02:18:42.023Z,64.56
2022-12-06T02:19:42.003Z,62.88
2022-12-06T02:20:41.987Z,63.41
2022-12-06T02:21:41.984Z,65.46
2022-12-06T02:22:41.974Z,63.02
2022-12-06T02:23:41.986Z,62.48
2022-12-06T02:24:41.958Z,64.25
2022-12-06T02:25:43.529Z,60.91
2022-12-06T02:26:41.951Z,62.32
2022-12-06T02:27:41.939Z,60.93
2022-12-06T02:28:41.936Z,62.19
2022-12-06T02:29:41.949Z,61.71
2022-12-06T02:30:41.991Z,61.47
2022-12-06T02:31:41.911Z,62.25
2022-12-06T02:32:41.925Z,61.78
2022-12-06T02:33:41.911Z,61.24
2022-12-06T02:34:41.907Z,56.99
2022-12-06T02:35:41.892Z,60.00
2022-12-06T02:36:41.894Z,60.11
2022-12-06T02:37:41.874Z,61.70
2022-12-06T02:38:41.890Z,62.62
2022-12-06T02:39:41.867Z,62.08
2022-12-06T02:40:41.872Z,61.90
2022-12-06T02:41:41.854Z,63.86
2022-12-06T02:42:41.838Z,62.36
2022-12-06T02:43:41.838Z,63.29
2022-12-06T02:44:41.824Z,59.26
2022-12-06T02:45:41.846Z,63.86
2022-12-06T02:46:41.872Z,64.09
2022-12-06T02:47:41.816Z,62.35
2022-12-06T02:48:41.824Z,64.46
2022-12-06T02:49:41.798Z,64.25
2022-12-06T02:50:41.785Z,63.88
2022-12-06T02:51:41.789Z,57.27
2022-12-06T02:52:41.782Z,61.53
2022-12-06T02:53:41.778Z,62.93
2022-12-06T02:54:41.801Z,61.00
2022-12-06T02:55:41.767Z,63.20
2022-12-06T02:56:41.776Z,57.44
2022-12-06T02:57:41.751Z,59.07
2022-12-06T02:58:41.759Z,63.48
2022-12-06T02:59:41.739Z,61.15
2022-12-06T03:00:41.729Z,63.14
2022-12-06T03:01:41.780Z,58.52
2022-12-06T03:02:41.870Z,62.67
2022-12-06T03:03:41.728Z,61.48
2022-12-06T03:04:41.709Z,61.62
2022-12-06T03:05:41.700Z,61.37
2022-12-06T03:06:41.734Z,61.58
2022-12-06T03:07:41.730Z,59.75
2022-12-06T03:08:41.677Z,58.96
2022-12-06T03:09:41.687Z,58.58
2022-12-06T03:10:41.668Z,63.48
2022-12-06T03:11:41.665Z,61.61
2022-12-06T03:12:41.652Z,60.85
2022-12-06T03:13:41.649Z,59.31
2022-12-06T03:14:41.655Z,62.05
2022-12-06T03:15:41.681Z,62.11
2022-12-06T03:16:41.617Z,64.60
2022-12-06T03:17:41.622Z,61.66
2022-12-06T03:18:41.608Z,61.11
2022-12-06T03:19:41.607Z,64.06
2022-12-06T03:20:41.611Z,61.17
2022-12-06T03:21:41.603Z,61.90
2022-12-06T03:22:41.584Z,63.00
2022-12-06T03:23:41.587Z,62.58
2022-12-06T03:24:41.576Z,61.26
2022-12-06T03:25:41.593Z,65.71
2022-12-06T03:26:41.558Z,61.96
2022-12-06T03:27:41.562Z,61.19
2022-12-06T03:28:41.547Z,60.77
2022-12-06T03:29:41.544Z,62.33
2022-12-06T03:30:41.568Z,61.62
2022-12-06T03:31:41.542Z,64.66
2022-12-06T03:32:41.523Z,59.46
2022-12-06T03:33:41.517Z,64.34
2022-12-06T03:34:41.511Z,63.49
2022-12-06T03:35:41.506Z,63.21
2022-12-06T03:36:41.512Z,62.52
2022-12-06T03:37:41.492Z,61.57
2022-12-06T03:38:41.483Z,62.17
2022-12-06T03:39:41.482Z,61.17
2022-12-06T03:40:41.487Z,64.34
2022-12-06T03:41:41.466Z,63.59
2022-12-06T03:42:41.452Z,64.04
2022-12-06T03:43:41.453Z,63.77
2022-12-06T03:44:41.438Z,65.73
2022-12-06T03:45:41.484Z,61.79
2022-12-06T03:46:41.482Z,65.40
2022-12-06T03:47:41.429Z,61.94
2022-12-06T03:48:41.420Z,65.56
2022-12-06T03:49:41.415Z,63.23
2022-12-06T03:50:41.407Z,65.18
2022-12-06T03:51:41.397Z,64.62
2022-12-06T03:52:41.410Z,59.79
2022-12-06T03:53:41.409Z,63.29
2022-12-06T03:54:41.383Z,64.04
2022-12-06T03:55:41.379Z,61.56
2022-12-06T03:56:41.369Z,62.63
2022-12-06T03:57:41.358Z,63.65
2022-12-06T03:58:41.353Z,61.20
2022-12-06T03:59:41.361Z,64.13
2022-12-06T04:00:41.357Z,61.44
2022-12-06T04:01:41.389Z,60.76
2022-12-06T04:02:41.328Z,64.03
2022-12-06T04:03:41.365Z,63.49
2022-12-06T04:04:41.324Z,60.00
2022-12-06T04:05:41.343Z,61.55
2022-12-06T04:06:41.301Z,63.48
2022-12-06T04:07:41.325Z,65.09
2022-12-06T04:08:41.289Z,64.29
2022-12-06T04:09:41.285Z,63.06
2022-12-06T04:10:41.275Z,61.67
2022-12-06T04:11:41.287Z,61.96
2022-12-06T04:12:41.260Z,63.77
2022-12-06T04:13:41.266Z,62.45
2022-12-06T04:14:41.246Z,64.77
2022-12-06T04:15:41.311Z,64.94
2022-12-06T04:16:41.249Z,62.13
2022-12-06T04:17:41.236Z,66.42
2022-12-06T04:18:41.233Z,64.69
2022-12-06T04:19:41.234Z,62.91
2022-12-06T04:20:41.207Z,64.53
2022-12-06T04:21:41.203Z,64.43
2022-12-06T04:22:41.198Z,63.68
2022-12-06T04:23:41.196Z,64.03
2022-12-06T04:24:41.183Z,64.44
2022-12-06T04:25:41.203Z,63.45
2022-12-06T04:26:41.173Z,65.99
2022-12-06T04:27:41.167Z,62.10
2022-12-06T04:28:41.152Z,66.06
2022-12-06T04:29:41.150Z,64.74
2022-12-06T04:30:41.153Z,66.43
2022-12-06T04:31:41.224Z,64.16
2022-12-06T04:32:41.137Z,63.33
2022-12-06T04:33:41.130Z,64.64
2022-12-06T04:34:41.137Z,66.06
2022-12-06T04:35:41.128Z,64.23
2022-12-06T04:36:41.108Z,64.56
2022-12-06T04:37:41.102Z,65.38
2022-12-06T04:38:41.093Z,65.71
2022-12-06T04:39:41.113Z,66.14
2022-12-06T04:40:41.093Z,65.87
2022-12-06T04:41:41.112Z,62.55
2022-12-06T04:42:41.059Z,63.83
2022-12-06T04:43:41.058Z,65.45
2022-12-06T04:44:41.068Z,65.29
2022-12-06T04:45:41.061Z,65.77
2022-12-06T04:46:41.115Z,64.64
2022-12-06T04:47:41.054Z,66.75
2022-12-06T04:48:41.031Z,64.14
2022-12-06T04:49:41.028Z,64.60
2022-12-06T04:50:41.038Z,65.79
2022-12-06T04:51:41.017Z,65.04
2022-12-06T04:52:41.003Z,63.81
2022-12-06T04:53:40.995Z,62.47
2022-12-06T04:54:41.002Z,64.53
2022-12-06T04:55:40.988Z,66.90
2022-12-06T04:56:40.987Z,65.88
2022-12-06T04:57:40.970Z,64.94
2022-12-06T04:58:40.961Z,65.25
2022-12-06T04:59:41.002Z,63.76
2022-12-06T05:00:40.987Z,64.59
2022-12-06T05:01:40.948Z,66.01
2022-12-06T05:02:40.934Z,64.91
2022-12-06T05:03:44.155Z,65.87
2022-12-06T05:04:40.927Z,65.00
2022-12-06T05:05:40.941Z,65.51
2022-12-06T05:06:40.914Z,65.19
2022-12-06T05:07:40.954Z,64.78
2022-12-06T05:08:40.901Z,64.88
2022-12-06T05:09:40.896Z,66.06
2022-12-06T05:10:40.889Z,66.74
2022-12-06T05:11:40.883Z,66.14
2022-12-06T05:12:40.888Z,63.82
2022-12-06T05:13:40.862Z,62.04
2022-12-06T05:14:40.864Z,66.10
2022-12-06T05:15:40.863Z,65.95
2022-12-06T05:16:40.881Z,65.81
2022-12-06T05:17:40.856Z,65.44
2022-12-06T05:18:40.844Z,65.90
2022-12-06T05:19:40.833Z,66.81
2022-12-06T05:20:40.829Z,65.53
2022-12-06T05:21:40.833Z,64.05
2022-12-06T05:22:40.803Z,64.43
2022-12-06T05:23:40.805Z,64.15
2022-12-06T05:24:40.798Z,65.30
2022-12-06T05:25:40.790Z,66.69
2022-12-06T05:26:40.794Z,66.07
2022-12-06T05:27:40.791Z,64.98
2022-12-06T05:28:40.769Z,66.30
2022-12-06T05:29:40.769Z,66.15
2022-12-06T05:30:40.754Z,65.39
2022-12-06T05:31:40.812Z,65.57
2022-12-06T05:32:40.749Z,64.16
2022-12-06T05:33:40.800Z,63.50
2022-12-06T05:34:40.730Z,65.85
2022-12-06T05:35:40.729Z,66.03
2022-12-06T05:36:40.710Z,66.56
2022-12-06T05:37:40.712Z,65.66
2022-12-06T05:38:40.703Z,66.24
2022-12-06T05:39:40.722Z,68.05
2022-12-06T05:40:40.718Z,64.97
2022-12-06T05:41:40.691Z,66.12
2022-12-06T05:42:40.668Z,66.00
2022-12-06T05:43:40.683Z,63.84
2022-12-06T05:44:40.662Z,63.98
2022-12-06T05:45:40.722Z,66.74
2022-12-06T05:46:40.663Z,65.54
2022-12-06T05:47:40.653Z,65.90
2022-12-06T05:48:40.635Z,65.24
2022-12-06T05:49:40.636Z,65.95
2022-12-06T05:50:40.633Z,66.16
2022-12-06T05:51:40.613Z,66.58
2022-12-06T05:52:40.643Z,64.60
2022-12-06T05:53:40.603Z,65.25
2022-12-06T05:54:40.594Z,63.64
2022-12-06T05:55:40.606Z,63.95
2022-12-06T05:56:40.588Z,66.78
2022-12-06T05:57:45.611Z,67.30
2022-12-06T05:58:41.608Z,65.43
2022-12-06T05:59:40.564Z,64.84
2022-12-06T06:00:40.549Z,66.21
2022-12-06T06:01:40.602Z,67.21
2022-12-06T06:02:40.642Z,65.51
2022-12-06T06:03:46.954Z,60.48
2022-12-06T06:04:40.528Z,65.60
2022-12-06T06:05:40.520Z,67.80
2022-12-06T06:06:40.525Z,66.37
2022-12-06T06:07:40.585Z,64.69
2022-12-06T06:08:40.509Z,66.13
2022-12-06T06:09:40.499Z,67.11
2022-12-06T06:10:40.488Z,66.50
2022-12-06T06:11:40.480Z,64.93
2022-12-06T06:12:40.473Z,65.51
2022-12-06T06:13:40.488Z,63.56
2022-12-06T06:14:40.465Z,65.68
2022-12-06T06:15:40.474Z,62.93
2022-12-06T06:16:40.532Z,64.69
2022-12-06T06:17:40.451Z,65.77
2022-12-06T06:18:40.453Z,66.45
2022-12-06T06:19:40.439Z,67.76
2022-12-06T06:20:40.425Z,66.90
2022-12-06T06:21:40.443Z,66.03
2022-12-06T06:22:40.417Z,67.19
2022-12-06T06:23:40.405Z,66.94
2022-12-06T06:24:40.392Z,64.29
2022-12-06T06:25:40.391Z,66.12
2022-12-06T06:26:40.383Z,66.68
2022-12-06T06:27:40.403Z,66.27
2022-12-06T06:28:40.370Z,66.76
2022-12-06T06:29:45.153Z,66.16
2022-12-06T06:30:41.390Z,66.17
2022-12-06T06:31:40.413Z,67.22
2022-12-06T06:32:40.355Z,64.24
2022-12-06T06:33:40.360Z,65.66
2022-12-06T06:34:40.343Z,65.91
2022-12-06T06:35:40.347Z,66.27
2022-12-06T06:36:45.561Z,65.37
2022-12-06T06:37:40.323Z,66.98
2022-12-06T06:38:40.316Z,66.42
2022-12-06T06:39:40.310Z,66.39
2022-12-06T06:40:40.328Z,67.49
2022-12-06T06:41:40.296Z,64.78
2022-12-06T06:42:40.290Z,65.03
2022-12-06T06:43:40.282Z,66.32
2022-12-06T06:44:40.273Z,66.82
2022-12-06T06:45:40.296Z,67.22
2022-12-06T06:46:40.279Z,63.57
2022-12-06T06:47:40.257Z,66.46
2022-12-06T06:48:40.247Z,63.25
2022-12-06T06:49:40.246Z,66.14
2022-12-06T06:50:40.273Z,66.29
2022-12-06T06:51:40.232Z,65.89
2022-12-06T06:52:40.227Z,66.50
2022-12-06T06:53:40.222Z,64.52
2022-12-06T06:54:40.228Z,65.21
2022-12-06T06:55:40.209Z,62.14
2022-12-06T06:56:40.239Z,65.65
2022-12-06T06:57:40.199Z,66.53
2022-12-06T06:58:40.184Z,66.71
2022-12-06T06:59:40.181Z,65.86
2022-12-06T07:00:40.179Z,66.96
2022-12-06T07:01:40.248Z,65.48
2022-12-06T07:02:40.238Z,66.01
2022-12-06T07:03:40.157Z,65.31
2022-12-06T07:04:40.163Z,66.37
2022-12-06T07:05:40.151Z,67.37
2022-12-06T07:06:40.141Z,61.82
2022-12-06T07:07:40.188Z,66.48
2022-12-06T07:08:40.128Z,67.76
2022-12-06T07:09:40.125Z,65.94
2022-12-06T07:10:40.124Z,65.03
2022-12-06T07:11:40.115Z,66.85
2022-12-06T07:12:40.124Z,66.73
2022-12-06T07:13:40.105Z,67.12
2022-12-06T07:14:40.102Z,64.74
2022-12-06T07:15:40.086Z,64.87
2022-12-06T07:16:40.105Z,65.81
2022-12-06T07:17:40.078Z,67.21
2022-12-06T07:18:40.083Z,68.04
2022-12-06T07:19:40.058Z,67.06
2022-12-06T07:20:40.076Z,67.37
2022-12-06T07:21:40.056Z,65.72
2022-12-06T07:22:40.041Z,64.76
2022-12-06T07:23:40.041Z,65.71
2022-12-06T07:24:43.652Z,67.10
2022-12-06T07:25:41.063Z,64.87
2022-12-06T07:26:40.021Z,67.53
2022-12-06T07:27:40.013Z,64.53
2022-12-06T07:28:40.006Z,65.81
2022-12-06T07:29:40.010Z,65.87
2022-12-06T07:30:40.081Z,66.63
2022-12-06T07:31:40.052Z,63.72
2022-12-06T07:32:39.981Z,67.07
2022-12-06T07:33:39.984Z,65.64
2022-12-06T07:34:39.975Z,65.45
2022-12-06T07:36:10.956Z,66.06
2022-12-06T07:36:40.985Z,65.73
2022-12-06T07:37:39.958Z,64.53
2022-12-06T07:38:39.961Z,67.01
2022-12-06T07:39:39.949Z,66.90
2022-12-06T07:41:39.955Z,63.30
2022-12-06T07:42:39.926Z,65.26
2022-12-06T07:43:39.922Z,65.65
2022-12-06T07:44:39.936Z,66.65
2022-12-06T07:45:39.971Z,67.85
2022-12-06T07:46:39.914Z,65.65
2022-12-06T07:47:39.929Z,63.60
2022-12-06T07:48:39.893Z,66.49
2022-12-06T07:49:39.885Z,66.33
2022-12-06T07:50:39.891Z,66.48
2022-12-06T07:51:39.880Z,64.58
2022-12-06T07:52:39.876Z,65.02
2022-12-06T07:53:39.861Z,63.80
2022-12-06T07:54:39.867Z,65.87
2022-12-06T07:55:39.857Z,67.66
2022-12-06T07:56:39.843Z,64.01
2022-12-06T07:57:43.457Z,65.74
2022-12-06T07:58:39.829Z,63.43
2022-12-06T07:59:39.843Z,65.34
2022-12-06T08:00:39.838Z,64.51
2022-12-06T08:01:39.941Z,64.85
2022-12-06T08:02:39.823Z,64.82
2022-12-06T08:03:39.802Z,65.86
2022-12-06T08:04:39.871Z,67.11
2022-12-06T08:05:39.803Z,67.46
2022-12-06T08:06:39.786Z,66.05
2022-12-06T08:07:39.854Z,65.31
2022-12-06T08:08:39.771Z,67.36
2022-12-06T08:09:39.782Z,66.83
2022-12-06T08:10:39.755Z,68.53
2022-12-06T08:11:39.768Z,67.17
2022-12-06T08:12:39.754Z,63.70
2022-12-06T08:13:39.764Z,65.57
2022-12-06T08:14:39.737Z,67.20
2022-12-06T08:15:39.796Z,67.32
2022-12-06T08:16:39.717Z,65.06
2022-12-06T08:17:39.714Z,65.72
2022-12-06T08:18:39.714Z,67.40
2022-12-06T08:19:39.756Z,64.56
2022-12-06T08:20:39.695Z,65.99
2022-12-06T08:21:39.691Z,67.13
2022-12-06T08:22:39.690Z,67.49
2022-12-06T08:23:39.672Z,64.70
2022-12-06T08:24:39.659Z,66.52
2022-12-06T08:25:39.677Z,63.25
2022-12-06T08:26:39.652Z,66.15
2022-12-06T08:27:39.642Z,65.85
2022-12-06T08:28:39.635Z,64.89
2022-12-06T08:29:39.646Z,62.77
2022-12-06T08:30:39.693Z,66.77
2022-12-06T08:31:39.687Z,66.15
2022-12-06T08:32:39.613Z,66.08
2022-12-06T08:33:39.614Z,67.68
2022-12-06T08:34:39.602Z,67.47
2022-12-06T08:35:39.593Z,64.73
2022-12-06T08:36:39.603Z,65.57
2022-12-06T08:37:39.610Z,65.63
2022-12-06T08:38:39.572Z,67.54
2022-12-06T08:39:39.567Z,65.13
2022-12-06T08:40:39.563Z,66.29
2022-12-06T08:41:39.572Z,65.97
2022-12-06T08:42:39.560Z,66.18
2022-12-06T08:43:39.547Z,65.76
2022-12-06T08:44:39.538Z,67.15
2022-12-06T08:45:39.531Z,66.69
2022-12-06T08:46:39.585Z,64.53
2022-12-06T08:47:39.532Z,66.67
2022-12-06T08:48:42.977Z,65.67
2022-12-06T08:49:39.523Z,68.22
2022-12-06T08:50:39.496Z,66.65
2022-12-06T08:51:39.496Z,64.49
2022-12-06T08:52:39.484Z,65.32
2022-12-06T08:53:39.515Z,66.75
2022-12-06T08:54:39.488Z,64.45
2022-12-06T08:55:39.468Z,66.54
2022-12-06T08:56:39.457Z,67.15
2022-12-06T08:57:39.473Z,65.56
2022-12-06T08:58:39.444Z,64.45
2022-12-06T08:59:39.470Z,63.98
2022-12-06T09:00:39.436Z,66.77
2022-12-06T09:01:39.480Z,64.96
2022-12-06T09:02:39.448Z,63.23
2022-12-06T09:03:39.422Z,66.81
2022-12-06T09:04:39.497Z,64.74
2022-12-06T09:05:39.430Z,66.01
2022-12-06T09:06:39.420Z,66.07
2022-12-06T09:07:39.410Z,66.42
2022-12-06T09:08:39.390Z,66.27
2022-12-06T09:09:39.391Z,67.10
2022-12-06T09:10:39.373Z,63.96
2022-12-06T09:11:39.371Z,65.40
2022-12-06T09:12:39.382Z,65.86
2022-12-06T09:13:39.361Z,66.61
2022-12-06T09:14:39.358Z,66.76
2022-12-06T09:15:39.419Z,64.96
2022-12-06T09:16:39.343Z,67.45
2022-12-06T09:17:39.348Z,66.11
2022-12-06T09:18:39.328Z,64.73
2022-12-06T09:19:39.336Z,64.60
2022-12-06T09:20:39.322Z,64.37
2022-12-06T09:21:39.330Z,64.46
2022-12-06T09:22:39.308Z,65.67
2022-12-06T09:23:39.320Z,66.12
2022-12-06T09:24:39.305Z,65.94
2022-12-06T09:25:39.319Z,66.49
2022-12-06T09:26:39.302Z,69.20
2022-12-06T09:27:39.277Z,67.48
2022-12-06T09:28:39.300Z,65.80
2022-12-06T09:29:40.962Z,64.49
2022-12-06T09:30:39.281Z,66.07
2022-12-06T09:31:39.308Z,64.40
2022-12-06T09:32:39.247Z,67.67
2022-12-06T09:33:39.294Z,65.07
2022-12-06T09:34:39.252Z,65.88
2022-12-06T09:35:39.235Z,65.25
2022-12-06T09:36:39.227Z,66.06
2022-12-06T09:37:39.219Z,65.85
2022-12-06T09:38:39.220Z,65.23
2022-12-06T09:39:39.215Z,66.72
2022-12-06T09:40:42.843Z,64.78
2022-12-06T09:41:39.190Z,67.64
2022-12-06T09:42:39.218Z,67.91
2022-12-06T09:43:39.181Z,65.53
2022-12-06T09:44:39.165Z,64.99
2022-12-06T09:45:39.215Z,62.47
2022-12-06T09:46:39.218Z,64.66
2022-12-06T09:47:39.159Z,64.07
2022-12-06T09:48:41.795Z,63.32
2022-12-06T09:49:40.149Z,62.69
2022-12-06T09:50:39.133Z,62.67
2022-12-06T09:51:39.137Z,63.12
2022-12-06T09:52:39.118Z,61.61
2022-12-06T09:53:39.122Z,62.05
2022-12-06T09:54:39.108Z,62.68
2022-12-06T09:55:39.119Z,62.92
2022-12-06T09:56:39.110Z,64.13
2022-12-06T09:57:39.086Z,63.43
2022-12-06T09:58:39.079Z,63.36
2022-12-06T09:59:39.073Z,62.59
2022-12-06T10:00:39.098Z,64.77
2022-12-06T10:01:39.122Z,64.32
2022-12-06T10:02:39.152Z,67.25
2022-12-06T10:03:39.052Z,65.85
2022-12-06T10:04:39.051Z,65.16
2022-12-06T10:05:39.064Z,67.44
2022-12-06T10:06:39.029Z,67.33
2022-12-06T10:07:39.160Z,66.98
2022-12-06T10:08:39.151Z,66.18
2022-12-06T10:09:39.012Z,65.79
2022-12-06T10:10:39.014Z,66.54
2022-12-06T10:11:39.028Z,67.95
2022-12-06T10:12:39.001Z,67.31
2022-12-06T10:13:38.999Z,66.71
2022-12-06T10:14:38.985Z,68.08
2022-12-06T10:15:39.081Z,65.61
2022-12-06T10:16:39.006Z,67.04
2022-12-06T10:17:38.971Z,68.14
2022-12-06T10:18:38.950Z,67.86
2022-12-06T10:19:38.946Z,67.10
2022-12-06T10:20:38.943Z,67.67
2022-12-06T10:21:38.958Z,67.98
2022-12-06T10:22:38.932Z,67.04
2022-12-06T10:23:38.933Z,67.36
2022-12-06T10:24:38.927Z,67.11
2022-12-06T10:25:38.926Z,66.85
2022-12-06T10:26:38.914Z,66.63
2022-12-06T10:27:38.923Z,67.99
2022-12-06T10:28:38.891Z,68.10
2022-12-06T10:29:38.885Z,67.29
2022-12-06T10:30:38.895Z,68.27
2022-12-06T10:31:38.893Z,67.05
2022-12-06T10:32:38.856Z,68.20
2022-12-06T10:33:38.879Z,66.50
2022-12-06T10:34:40.303Z,67.37
2022-12-06T10:35:38.849Z,67.29
2022-12-06T10:36:38.850Z,67.76
2022-12-06T10:37:38.831Z,67.15
2022-12-06T10:38:38.825Z,67.87
2022-12-06T10:39:38.846Z,67.97
2022-12-06T10:40:38.858Z,66.17
2022-12-06T10:41:38.817Z,66.55
2022-12-06T10:42:38.809Z,68.35
2022-12-06T10:43:38.798Z,66.55
2022-12-06T10:44:38.783Z,68.18
2022-12-06T10:45:38.790Z,66.13
2022-12-06T10:46:38.860Z,65.76
2022-12-06T10:47:38.772Z,64.94
2022-12-06T10:48:38.760Z,65.33
2022-12-06T10:49:38.786Z,67.10
2022-12-06T10:50:38.760Z,67.88
2022-12-06T10:51:38.760Z,63.67
2022-12-06T10:52:38.737Z,67.00
2022-12-06T10:53:38.741Z,64.71
2022-12-06T10:54:38.749Z,63.82
2022-12-06T10:55:38.729Z,63.11
2022-12-06T10:56:38.714Z,65.00
2022-12-06T10:57:38.719Z,63.26
2022-12-06T10:58:38.708Z,64.52
2022-12-06T10:59:38.697Z,65.16
2022-12-06T11:00:38.738Z,66.52
2022-12-06T11:01:38.789Z,67.46
2022-12-06T11:02:38.742Z,66.06
2022-12-06T11:03:38.670Z,65.63
2022-12-06T11:04:38.662Z,67.47
2022-12-06T11:05:38.670Z,66.65
2022-12-06T11:06:38.662Z,66.00
2022-12-06T11:07:38.685Z,67.28
2022-12-06T11:08:38.674Z,65.68
2022-12-06T11:09:38.661Z,68.08
2022-12-06T11:10:38.627Z,66.10
2022-12-06T11:11:38.624Z,68.28
2022-12-06T11:12:38.615Z,67.28
2022-12-06T11:13:38.622Z,67.91
2022-12-06T11:14:38.682Z,68.19
2022-12-06T11:15:38.605Z,67.71
2022-12-06T11:16:38.625Z,66.69
2022-12-06T11:17:38.598Z,65.98
2022-12-06T11:18:38.595Z,66.16
2022-12-06T11:19:38.583Z,65.45
2022-12-06T11:20:38.586Z,66.75
2022-12-06T11:21:38.601Z,65.36
2022-12-06T11:22:38.551Z,66.41
2022-12-06T11:23:38.559Z,66.60
2022-12-06T11:24:41.926Z,66.70
2022-12-06T11:25:39.543Z,65.76
2022-12-06T11:26:38.535Z,66.75
2022-12-06T11:27:38.561Z,66.46
2022-12-06T11:28:38.553Z,66.79
2022-12-06T11:29:38.515Z,67.12
2022-12-06T11:30:38.498Z,66.45
2022-12-06T11:31:38.561Z,67.51
2022-12-06T11:32:38.483Z,67.59
2022-12-06T11:33:38.501Z,66.89
2022-12-06T11:34:38.502Z,68.00
2022-12-06T11:35:38.496Z,67.30
2022-12-06T11:36:38.461Z,67.15
2022-12-06T11:37:42.934Z,66.06
2022-12-06T11:38:39.569Z,65.27
2022-12-06T11:39:38.470Z,66.35
2022-12-06T11:40:38.438Z,65.31
2022-12-06T11:41:38.437Z,67.67
2022-12-06T11:42:38.435Z,65.48
2022-12-06T11:43:38.423Z,67.23
2022-12-06T11:44:38.430Z,67.67
2022-12-06T11:45:38.403Z,67.84
2022-12-06T11:46:38.457Z,65.86
2022-12-06T11:47:38.439Z,69.17
2022-12-06T11:48:38.387Z,66.51
2022-12-06T11:49:38.405Z,66.28
2022-12-06T11:50:38.380Z,65.92
2022-12-06T11:51:38.395Z,65.85
2022-12-06T11:52:38.382Z,65.81
2022-12-06T11:53:38.365Z,66.66
2022-12-06T11:54:38.350Z,66.77
2022-12-06T11:55:38.371Z,65.94
2022-12-06T11:56:38.358Z,65.58
2022-12-06T11:57:38.334Z,66.15
2022-12-06T11:58:38.325Z,66.30
2022-12-06T11:59:38.313Z,64.52
2022-12-06T12:00:38.357Z,65.85
2022-12-06T12:01:38.369Z,64.06
2022-12-06T12:02:38.365Z,65.44
2022-12-06T12:03:38.338Z,65.34
2022-12-06T12:04:38.281Z,66.28
2022-12-06T12:05:38.299Z,66.90
2022-12-06T12:06:38.276Z,64.73
2022-12-06T12:07:38.315Z,65.80
2022-12-06T12:08:38.268Z,66.27
2022-12-06T12:09:38.273Z,64.03
2022-12-06T12:10:38.266Z,66.68
2022-12-06T12:11:38.257Z,67.11
2022-12-06T12:12:38.250Z,66.69
2022-12-06T12:13:38.228Z,65.84
2022-12-06T12:14:38.226Z,65.01
2022-12-06T12:15:38.217Z,66.24
2022-12-06T12:16:38.258Z,67.45
2022-12-06T12:17:38.207Z,67.52
2022-12-06T12:18:38.208Z,66.52
2022-12-06T12:19:38.186Z,64.79
2022-12-06T12:20:38.213Z,64.23
2022-12-06T12:21:38.186Z,66.26
2022-12-06T12:22:38.185Z,66.93
2022-12-06T12:23:38.175Z,65.08
2022-12-06T12:24:56.406Z,65.86
2022-12-06T12:25:39.304Z,65.69
2022-12-06T12:26:38.142Z,68.02
2022-12-06T12:27:38.139Z,65.95
2022-12-06T12:28:38.128Z,67.72
2022-12-06T12:29:38.143Z,66.10
2022-12-06T12:30:38.153Z,66.65
2022-12-06T12:31:38.211Z,67.74
2022-12-06T12:32:38.104Z,65.78
2022-12-06T12:33:38.113Z,66.78
2022-12-06T12:34:42.749Z,67.26
2022-12-06T12:35:38.085Z,65.22
2022-12-06T12:36:38.116Z,64.09
2022-12-06T12:37:38.072Z,64.70
2022-12-06T12:38:38.072Z,67.76
2022-12-06T12:39:38.069Z,66.03
2022-12-06T12:40:38.060Z,66.22
2022-12-06T12:41:38.050Z,64.60
2022-12-06T12:42:38.057Z,65.23
2022-12-06T12:43:38.039Z,65.82
2022-12-06T12:44:39.353Z,66.06
2022-12-06T12:45:38.058Z,66.28
2022-12-06T12:46:38.096Z,64.77
2022-12-06T12:47:38.038Z,66.80
2022-12-06T12:48:38.029Z,67.30
2022-12-06T12:49:38.017Z,66.59
2022-12-06T12:50:37.992Z,66.13
2022-12-06T12:51:38.006Z,65.13
2022-12-06T12:52:37.999Z,67.71
2022-12-06T12:53:37.995Z,64.76